Decoded Metar for YSWG (WAGGA WAGGA in AUSTRALIA) (IATA:WGA) | Meteo·Mobile Aviation Weather
aviador You're here:

YSWG Decoded Metar

WAGGA WAGGA in AUSTRALIA
Report Time2019-05-19 12:00:00
UTC Time2019-05-19 12:56:51
Flight Rules vfr VFR
Wind100° at 07 kt
W.Decomp.*RWY 12: 5.9 kt HW 3.7 kt LCW
RWY 05: 5.5 kt HW 4.3 kt RCW
Visibility9999 m
Phenomena:N/A
Clouds:N/A
Expected CloudBase > 1,600 ft AGL from Temp-Dew spread
CeilingNone
Temp13°C (ISA -1)
Dew Point09°C (77% RH)
AAT10.3°C
QNH1027 hPa
Density Alt312 ft
Elevation699 ft
Report Wrong Elevation
Raw Report
YSWG 191200Z AUTO 10007KT 9999 // NCD 13/09 Q1027=

Extra information for YSWG:More info

Metar Taf Metar & Taf Last 4 Metars F.Rules Stats Wind Profile Meteogram Temp Stats Airport Information Weather charts Add Link Nearby VenuesMetar ALERT Operation Metar Decoded Social comments